createdAt,value
2022-11-05T00:01:08.582Z,10.08
2022-11-05T00:03:53.876Z,10.06
2022-11-05T00:06:39.552Z,10.05
2022-11-05T00:09:28.134Z,10.02
2022-11-05T00:12:13.313Z,10.07
2022-11-05T00:14:58.525Z,10.12
2022-11-05T00:17:25.514Z,10.08
2022-11-05T00:19:52.198Z,9.89
2022-11-05T00:22:37.701Z,9.88
2022-11-05T00:25:17.378Z,9.90
2022-11-05T00:27:49.166Z,9.91
2022-11-05T00:30:18.648Z,9.91
2022-11-05T00:32:47.670Z,9.96
2022-11-05T00:35:15.259Z,9.85
2022-11-05T00:37:48.733Z,9.94
2022-11-05T00:40:16.563Z,9.85
2022-11-05T00:43:22.015Z,9.94
2022-11-05T00:45:48.710Z,10.01
2022-11-05T00:48:34.259Z,10.03
2022-11-05T00:51:01.137Z,10.04
2022-11-05T00:53:27.990Z,9.98
2022-11-05T00:55:54.825Z,10.04
2022-11-05T00:58:22.739Z,10.15
2022-11-05T01:00:54.563Z,10.16
2022-11-05T01:03:23.585Z,10.19
2022-11-05T01:05:53.312Z,10.20
2022-11-05T01:08:22.077Z,10.24
2022-11-05T01:10:51.853Z,10.22
2022-11-05T01:13:21.751Z,10.13
2022-11-05T01:15:50.936Z,10.22
2022-11-05T01:18:19.363Z,10.27
2022-11-05T01:20:46.417Z,10.32
2022-11-05T01:23:13.971Z,10.21
2022-11-05T01:25:42.075Z,10.15
2022-11-05T01:28:09.750Z,10.11
2022-11-05T01:30:37.598Z,10.07
2022-11-05T01:33:04.400Z,10.05
2022-11-05T01:35:31.048Z,10.02
2022-11-05T01:37:58.046Z,9.92
2022-11-05T01:40:25.884Z,9.92
2022-11-05T01:42:52.884Z,10.01
2022-11-05T01:45:27.931Z,9.90
2022-11-05T01:48:03.032Z,9.91
2022-11-05T01:50:39.066Z,9.85
2022-11-05T01:53:15.191Z,9.54
2022-11-05T01:55:51.421Z,9.66
2022-11-05T01:58:22.929Z,9.64
2022-11-05T02:00:49.709Z,9.60
2022-11-05T02:03:18.075Z,9.56
2022-11-05T02:05:45.761Z,9.38
2022-11-05T02:08:22.532Z,9.40
2022-11-05T02:10:49.886Z,9.33
2022-11-05T02:13:16.702Z,9.21
2022-11-05T02:16:13.833Z,9.32
2022-11-05T02:19:05.148Z,9.36
2022-11-05T02:21:56.072Z,9.42
2022-11-05T02:24:53.309Z,9.15
2022-11-05T02:27:48.301Z,9.16
2022-11-05T02:30:33.752Z,9.28
2022-11-05T02:33:34.474Z,9.19
2022-11-05T02:36:13.509Z,9.12
2022-11-05T02:38:59.556Z,9.10
2022-11-05T02:41:52.673Z,9.23
2022-11-05T02:44:31.268Z,9.26
2022-11-05T02:47:04.254Z,9.32
2022-11-05T02:50:14.628Z,9.35
2022-11-05T02:52:58.905Z,9.22
2022-11-05T02:55:32.689Z,9.11
2022-11-05T02:58:02.190Z,9.18
2022-11-05T03:00:48.376Z,9.12
2022-11-05T03:03:28.905Z,9.11
2022-11-05T03:06:16.622Z,9.06
2022-11-05T03:08:55.570Z,9.01
2022-11-05T03:11:25.592Z,9.08
2022-11-05T03:14:21.548Z,9.02
2022-11-05T03:17:12.893Z,9.01
2022-11-05T03:19:53.782Z,8.84
2022-11-05T03:22:37.077Z,9.03
2022-11-05T03:25:11.833Z,8.86
2022-11-05T03:27:43.262Z,9.05
2022-11-05T03:30:13.176Z,9.04
2022-11-05T03:32:46.407Z,8.81
2022-11-05T03:35:26.005Z,8.86
2022-11-05T03:37:58.473Z,8.80
2022-11-05T03:40:26.323Z,8.86
2022-11-05T03:42:57.163Z,8.86
2022-11-05T03:45:36.303Z,8.97
2022-11-05T03:48:05.597Z,8.93
2022-11-05T03:51:13.975Z,9.02
2022-11-05T03:53:50.140Z,9.16
2022-11-05T03:56:31.742Z,9.13
2022-11-05T03:59:00.833Z,8.91
2022-11-05T04:01:29.121Z,9.03
2022-11-05T04:03:56.100Z,8.94
2022-11-05T04:06:41.804Z,8.92
2022-11-05T04:09:28.713Z,8.81
2022-11-05T04:12:14.018Z,9.11
2022-11-05T04:14:40.748Z,8.85
2022-11-05T04:17:07.487Z,9.16
2022-11-05T04:19:57.242Z,9.16
2022-11-05T04:22:44.042Z,9.09
2022-11-05T04:25:11.502Z,9.07
2022-11-05T04:27:39.494Z,9.07
2022-11-05T04:30:18.957Z,9.18
2022-11-05T04:33:13.038Z,9.14
2022-11-05T04:35:47.713Z,9.01
2022-11-05T04:38:17.733Z,9.05
2022-11-05T04:40:45.232Z,9.19
2022-11-05T04:43:18.923Z,9.08
2022-11-05T04:45:46.172Z,9.20
2022-11-05T04:48:13.079Z,9.26
2022-11-05T04:50:39.936Z,9.22
2022-11-05T04:53:06.807Z,9.21
2022-11-05T04:55:33.577Z,9.37
2022-11-05T04:58:00.159Z,9.47
2022-11-05T05:00:27.019Z,9.40
2022-11-05T05:02:53.781Z,9.24
2022-11-05T05:05:22.648Z,9.34
2022-11-05T05:07:49.259Z,9.34
2022-11-05T05:10:16.003Z,9.06
2022-11-05T05:12:42.688Z,9.25
2022-11-05T05:15:09.443Z,9.27
2022-11-05T05:17:36.140Z,9.17
2022-11-05T05:20:21.271Z,9.13
2022-11-05T05:22:55.343Z,9.14
2022-11-05T05:25:23.938Z,9.12
2022-11-05T05:27:50.853Z,9.29
2022-11-05T05:30:17.976Z,9.26
2022-11-05T05:32:45.560Z,9.09
2022-11-05T05:35:12.295Z,9.34
2022-11-05T05:37:39.550Z,9.53
2022-11-05T05:40:06.898Z,9.28
2022-11-05T05:42:37.464Z,9.92
2022-11-05T05:45:07.299Z,9.68
2022-11-05T05:47:34.195Z,10.03
2022-11-05T05:50:00.854Z,10.16
2022-11-05T05:52:27.571Z,10.49
2022-11-05T05:54:54.175Z,10.75
2022-11-05T05:57:21.039Z,10.84
2022-11-05T05:59:47.797Z,11.10
2022-11-05T06:02:14.622Z,11.30
2022-11-05T06:04:41.695Z,11.48
2022-11-05T06:07:08.485Z,11.59
2022-11-05T06:09:35.373Z,11.45
2022-11-05T06:12:02.220Z,11.01
2022-11-05T06:14:28.748Z,11.08
2022-11-05T06:16:55.564Z,10.80
2022-11-05T06:19:22.289Z,10.91
2022-11-05T06:21:49.199Z,10.90
2022-11-05T06:24:16.469Z,10.98
2022-11-05T06:26:43.538Z,11.04
2022-11-05T06:29:12.684Z,10.91
2022-11-05T06:31:39.764Z,10.66
2022-11-05T06:34:06.566Z,10.58
2022-11-05T06:36:33.675Z,10.80
2022-11-05T06:39:00.355Z,10.57
2022-11-05T06:41:27.220Z,10.63
2022-11-05T06:43:53.834Z,11.18
2022-11-05T06:46:20.676Z,11.31
2022-11-05T06:48:47.519Z,11.35
2022-11-05T06:51:14.588Z,11.20
2022-11-05T06:53:41.135Z,11.29
2022-11-05T06:56:08.199Z,11.47
2022-11-05T06:58:34.939Z,11.64
2022-11-05T07:01:11.469Z,11.75
2022-11-05T07:09:28.711Z,12.12
2022-11-05T07:11:55.759Z,12.10
2022-11-05T07:14:22.632Z,11.98
2022-11-05T07:16:49.747Z,12.15
2022-11-05T07:19:16.556Z,12.20
2022-11-05T07:21:43.129Z,12.13
2022-11-05T07:24:17.128Z,12.57
2022-11-05T07:26:43.877Z,12.62
2022-11-05T07:29:10.598Z,12.73
2022-11-05T07:31:37.405Z,13.01
2022-11-05T07:34:24.423Z,13.07
2022-11-05T07:36:51.253Z,13.09
2022-11-05T07:39:18.108Z,13.25
2022-11-05T07:41:44.778Z,13.47
2022-11-05T07:44:11.907Z,13.79
2022-11-05T07:46:38.679Z,13.92
2022-11-05T07:49:05.784Z,14.37
2022-11-05T07:51:32.550Z,14.60
2022-11-05T07:53:59.301Z,14.51
2022-11-05T07:56:27.119Z,14.62
2022-11-05T07:58:54.130Z,14.60
2022-11-05T08:01:21.112Z,15.05
2022-11-05T08:03:47.943Z,15.13
2022-11-05T08:06:15.246Z,15.21
2022-11-05T08:08:42.424Z,15.51
2022-11-05T08:11:11.652Z,15.71
2022-11-05T08:13:41.111Z,15.76
2022-11-05T08:16:08.152Z,14.92
2022-11-05T08:18:35.203Z,15.23
2022-11-05T08:21:04.404Z,15.48
2022-11-05T08:23:32.485Z,15.87
2022-11-05T08:25:59.479Z,15.77
2022-11-05T08:28:26.622Z,16.03
2022-11-05T08:30:55.844Z,16.34
2022-11-05T08:33:24.840Z,16.38
2022-11-05T08:35:51.902Z,16.38
2022-11-05T08:38:20.204Z,16.18
2022-11-05T08:40:57.766Z,16.20
2022-11-05T08:43:24.704Z,16.06
2022-11-05T08:45:51.491Z,16.06
2022-11-05T08:48:19.480Z,16.07
2022-11-05T08:50:48.386Z,16.20
2022-11-05T08:53:16.285Z,16.09
2022-11-05T08:55:44.173Z,16.30
2022-11-05T08:58:15.284Z,16.34
2022-11-05T09:00:43.342Z,16.35
2022-11-05T09:03:10.937Z,16.44
2022-11-05T09:05:40.031Z,16.59
2022-11-05T09:08:18.462Z,16.72
2022-11-05T09:10:46.690Z,16.65
2022-11-05T09:13:18.778Z,16.64
2022-11-05T09:15:48.392Z,16.45
2022-11-05T09:18:16.239Z,16.64
2022-11-05T09:20:43.638Z,16.94
2022-11-05T09:23:15.015Z,16.99
2022-11-05T09:25:42.343Z,17.12
2022-11-05T09:28:23.988Z,16.80
2022-11-05T09:30:53.029Z,16.88
2022-11-05T09:36:16.632Z,17.10
2022-11-05T09:38:43.739Z,17.32
2022-11-05T09:41:23.889Z,17.51
2022-11-05T09:44:01.694Z,17.58
2022-11-05T09:46:48.672Z,17.23
2022-11-05T09:49:48.181Z,17.30
2022-11-05T09:52:28.161Z,17.25
2022-11-05T09:54:56.319Z,17.01
2022-11-05T09:57:35.521Z,16.91
2022-11-05T10:00:06.922Z,17.00
2022-11-05T10:02:50.588Z,17.07
2022-11-05T10:05:19.175Z,17.35
2022-11-05T10:07:53.579Z,17.43
2022-11-05T10:10:43.806Z,17.84
2022-11-05T10:13:20.598Z,17.61
2022-11-05T10:15:59.110Z,17.98
2022-11-05T10:18:35.884Z,17.87
2022-11-05T10:21:03.425Z,18.04
2022-11-05T10:23:30.698Z,18.07
2022-11-05T10:26:03.477Z,18.10
2022-11-05T10:28:33.693Z,18.06
2022-11-05T10:36:57.165Z,18.02
2022-11-05T10:39:27.898Z,18.01
2022-11-05T10:42:42.540Z,18.15
2022-11-05T10:45:18.244Z,18.21
2022-11-05T10:47:44.927Z,18.01
2022-11-05T10:50:15.904Z,17.83
2022-11-05T10:53:06.985Z,17.87
2022-11-05T10:55:38.076Z,17.90
2022-11-05T10:58:32.812Z,18.06
2022-11-05T11:00:59.974Z,18.23
2022-11-05T11:03:37.942Z,18.37
2022-11-05T11:06:12.947Z,18.46
2022-11-05T11:08:43.676Z,18.61
2022-11-05T11:11:13.161Z,18.53
2022-11-05T11:14:06.981Z,18.58
2022-11-05T11:16:39.858Z,18.55
2022-11-05T11:19:25.783Z,18.49
2022-11-05T11:22:04.412Z,18.58
2022-11-05T11:24:38.063Z,18.59
2022-11-05T11:27:10.358Z,18.75
2022-11-05T11:29:44.011Z,18.74
2022-11-05T11:32:17.710Z,18.63
2022-11-05T11:34:47.036Z,18.84
2022-11-05T11:37:19.779Z,18.66
2022-11-05T11:39:55.149Z,18.60
2022-11-05T11:42:26.398Z,18.61
2022-11-05T11:44:53.575Z,18.34
2022-11-05T11:47:22.227Z,18.68
2022-11-05T11:49:54.701Z,18.73
2022-11-05T11:52:31.235Z,18.91
2022-11-05T11:55:28.198Z,19.05
2022-11-05T11:58:06.347Z,19.00
2022-11-05T12:00:41.364Z,18.76
2022-11-05T12:03:41.885Z,18.49
2022-11-05T12:06:22.414Z,18.24
2022-11-05T12:09:32.811Z,18.07
2022-11-05T12:12:07.784Z,18.18
2022-11-05T12:14:46.063Z,18.19
2022-11-05T12:17:43.595Z,18.21
2022-11-05T12:20:56.944Z,18.18
2022-11-05T12:23:49.531Z,18.35
2022-11-05T12:26:34.156Z,18.63
2022-11-05T12:29:42.683Z,18.83
2022-11-05T12:32:28.200Z,18.92
2022-11-05T12:35:01.921Z,18.64
2022-11-05T12:37:53.317Z,18.77
2022-11-05T12:40:54.280Z,18.86
2022-11-05T12:43:36.470Z,18.92
2022-11-05T12:46:08.899Z,18.93
2022-11-05T12:48:47.569Z,18.94
2022-11-05T12:51:28.476Z,18.91
2022-11-05T12:54:23.430Z,18.84
2022-11-05T12:56:58.111Z,18.68
2022-11-05T12:59:28.790Z,18.74
2022-11-05T13:02:12.739Z,18.52
2022-11-05T13:05:01.497Z,18.52
2022-11-05T13:07:33.817Z,18.47
2022-11-05T13:10:13.806Z,18.45
2022-11-05T13:12:42.648Z,18.22
2022-11-05T13:15:29.681Z,18.07
2022-11-05T13:18:05.238Z,18.12
2022-11-05T13:20:37.858Z,18.02
2022-11-05T13:23:26.261Z,18.20
2022-11-05T13:25:58.299Z,18.31
2022-11-05T13:29:00.261Z,18.33
2022-11-05T13:31:33.363Z,18.25
2022-11-05T13:34:05.262Z,18.22
2022-11-05T13:37:06.472Z,18.20
2022-11-05T13:39:55.475Z,18.07
2022-11-05T13:43:03.780Z,17.87
2022-11-05T13:46:00.121Z,18.06
2022-11-05T13:49:09.337Z,18.10
2022-11-05T13:51:59.471Z,18.04
2022-11-05T13:54:45.952Z,17.95
2022-11-05T13:57:31.378Z,17.96
2022-11-05T14:00:11.756Z,17.92
2022-11-05T14:02:47.117Z,17.94
2022-11-05T14:05:38.898Z,17.90
2022-11-05T14:08:20.575Z,17.74
2022-11-05T14:11:00.169Z,17.73
2022-11-05T14:13:38.029Z,17.81
2022-11-05T14:16:09.291Z,17.74
2022-11-05T14:18:38.336Z,17.69
2022-11-05T14:21:07.196Z,17.53
2022-11-05T14:23:40.634Z,17.51
2022-11-05T14:26:28.739Z,17.37
2022-11-05T14:29:04.707Z,17.33
2022-11-05T14:34:44.068Z,17.17
2022-11-05T14:37:13.969Z,17.14
2022-11-05T14:39:44.879Z,17.01
2022-11-05T14:42:25.269Z,16.87
2022-11-05T14:45:24.551Z,16.87
2022-11-05T14:47:58.059Z,16.75
2022-11-05T14:50:36.636Z,16.75
2022-11-05T14:53:11.463Z,16.68
2022-11-05T14:55:44.331Z,16.66
2022-11-05T14:58:25.978Z,16.61
2022-11-05T15:00:54.172Z,16.56
2022-11-05T15:03:32.383Z,16.60
2022-11-05T15:06:08.586Z,16.52
2022-11-05T15:09:05.924Z,16.38
2022-11-05T15:11:46.697Z,16.38
2022-11-05T15:14:20.762Z,16.27
2022-11-05T15:16:54.893Z,16.00
2022-11-05T15:19:27.540Z,15.93
2022-11-05T15:21:58.527Z,15.77
2022-11-05T15:24:28.451Z,15.70
2022-11-05T15:27:13.844Z,15.52
2022-11-05T15:29:41.170Z,15.26
2022-11-05T15:32:17.920Z,15.10
2022-11-05T15:34:57.437Z,15.01
2022-11-05T15:37:27.089Z,14.82
2022-11-05T15:39:55.785Z,14.75
2022-11-05T15:42:25.646Z,14.88
2022-11-05T15:44:54.959Z,14.75
2022-11-05T15:47:29.028Z,14.84
2022-11-05T15:50:19.789Z,14.81
2022-11-05T15:52:54.090Z,14.70
2022-11-05T15:55:28.585Z,14.62
2022-11-05T15:58:07.060Z,14.61
2022-11-05T16:00:36.923Z,14.56
2022-11-05T16:03:19.168Z,14.50
2022-11-05T16:05:47.650Z,14.42
2022-11-05T16:08:24.911Z,14.26
2022-11-05T16:10:57.776Z,14.23
2022-11-05T16:13:33.442Z,14.25
2022-11-05T16:16:04.527Z,14.19
2022-11-05T16:18:42.622Z,14.19
2022-11-05T16:21:17.687Z,14.14
2022-11-05T16:23:53.496Z,13.93
2022-11-05T16:29:26.044Z,14.00
2022-11-05T16:31:55.414Z,13.93
2022-11-05T16:34:31.895Z,13.90
2022-11-05T16:36:59.740Z,13.75
2022-11-05T16:39:26.889Z,13.82
2022-11-05T16:41:53.910Z,13.80
2022-11-05T16:44:21.499Z,13.71
2022-11-05T16:46:50.347Z,13.64
2022-11-05T16:49:18.060Z,13.57
2022-11-05T16:51:45.248Z,13.62
2022-11-05T16:54:12.179Z,13.64
2022-11-05T16:56:40.271Z,13.52
2022-11-05T16:59:11.317Z,13.34
2022-11-05T17:01:41.297Z,13.48
2022-11-05T17:04:11.408Z,13.36
2022-11-05T17:06:41.258Z,13.38
2022-11-05T17:09:08.548Z,13.26
2022-11-05T17:11:35.592Z,13.33
2022-11-05T17:14:04.422Z,13.43
2022-11-05T17:16:32.452Z,13.48
2022-11-05T17:19:02.106Z,13.47
2022-11-05T17:21:29.226Z,13.47
2022-11-05T17:23:57.738Z,13.54
2022-11-05T17:26:25.095Z,13.50
2022-11-05T17:28:54.148Z,13.51
2022-11-05T17:31:21.042Z,13.52
2022-11-05T17:33:50.886Z,13.67
2022-11-05T17:36:17.891Z,13.61
2022-11-05T17:38:44.833Z,13.56
2022-11-05T17:41:20.628Z,13.63
2022-11-05T17:43:48.295Z,13.61
2022-11-05T17:46:17.516Z,13.49
2022-11-05T17:48:46.289Z,13.50
2022-11-05T17:51:17.943Z,13.50
2022-11-05T17:53:45.934Z,13.48
2022-11-05T17:56:26.169Z,13.46
2022-11-05T17:58:55.814Z,13.41
2022-11-05T18:01:29.142Z,13.40
2022-11-05T18:03:56.419Z,13.19
2022-11-05T18:06:23.658Z,13.01
2022-11-05T18:08:50.699Z,13.01
2022-11-05T18:11:17.880Z,12.96
2022-11-05T18:13:44.969Z,12.82
2022-11-05T18:16:12.149Z,12.83
2022-11-05T18:18:41.851Z,12.68
2022-11-05T18:21:08.856Z,12.56
2022-11-05T18:23:36.117Z,12.51
2022-11-05T18:26:09.889Z,12.40
2022-11-05T18:28:37.925Z,12.22
2022-11-05T18:31:08.285Z,12.18
2022-11-05T18:33:35.430Z,12.21
2022-11-05T18:36:02.594Z,12.08
2022-11-05T18:38:31.250Z,12.12
2022-11-05T18:40:58.190Z,12.09
2022-11-05T18:43:25.126Z,11.97
2022-11-05T18:45:56.396Z,11.95
2022-11-05T18:48:23.266Z,11.98
2022-11-05T18:50:50.059Z,11.83
2022-11-05T18:53:16.965Z,11.86
2022-11-05T18:55:51.126Z,11.73
2022-11-05T18:58:20.781Z,11.65
2022-11-05T19:00:48.772Z,11.61
2022-11-05T19:03:15.933Z,11.60
2022-11-05T19:05:42.881Z,11.58
2022-11-05T19:08:11.940Z,11.44
2022-11-05T19:10:41.157Z,11.57
2022-11-05T19:13:18.730Z,11.54
2022-11-05T19:15:45.723Z,11.58
2022-11-05T19:18:13.552Z,11.69
2022-11-05T19:20:40.615Z,11.80
2022-11-05T19:23:09.967Z,11.76
2022-11-05T19:25:40.395Z,11.68
2022-11-05T19:28:08.362Z,11.84
2022-11-05T19:30:35.386Z,11.85
2022-11-05T19:33:02.357Z,11.88
2022-11-05T19:35:34.663Z,11.81
2022-11-05T19:38:08.067Z,11.73
2022-11-05T19:40:39.928Z,11.82
2022-11-05T19:43:07.478Z,11.78
2022-11-05T19:45:49.572Z,11.80
2022-11-05T19:48:19.781Z,11.70
2022-11-05T19:50:47.448Z,11.64
2022-11-05T19:53:14.371Z,11.52
2022-11-05T19:55:41.690Z,11.45
2022-11-05T19:58:10.404Z,11.42
2022-11-05T20:00:41.148Z,11.54
2022-11-05T20:03:11.153Z,11.51
2022-11-05T20:05:40.056Z,11.54
2022-11-05T20:08:09.525Z,11.56
2022-11-05T20:10:39.646Z,11.53
2022-11-05T20:13:06.676Z,11.51
2022-11-05T20:15:39.002Z,11.58
2022-11-05T20:18:07.984Z,11.27
2022-11-05T20:20:35.762Z,11.43
2022-11-05T20:23:02.972Z,11.41
2022-11-05T20:25:37.371Z,11.45
2022-11-05T20:28:14.007Z,11.57
2022-11-05T20:30:41.703Z,11.50
2022-11-05T20:33:09.033Z,11.48
2022-11-05T20:35:41.874Z,11.54
2022-11-05T20:38:10.047Z,11.56
2022-11-05T20:40:40.170Z,11.62
2022-11-05T20:43:07.302Z,11.66
2022-11-05T20:45:34.397Z,11.72
2022-11-05T20:48:01.349Z,11.74
2022-11-05T20:50:29.045Z,11.71
2022-11-05T20:52:56.350Z,11.69
2022-11-05T20:55:23.303Z,11.84
2022-11-05T20:57:50.259Z,11.91
2022-11-05T21:00:19.756Z,11.80
2022-11-05T21:02:46.771Z,11.82
2022-11-05T21:05:13.800Z,11.71
2022-11-05T21:07:42.550Z,11.74
2022-11-05T21:10:12.670Z,11.59
2022-11-05T21:12:40.047Z,11.21
2022-11-05T21:15:07.756Z,11.14
2022-11-05T21:17:35.589Z,10.96
2022-11-05T21:20:02.855Z,11.02
2022-11-05T21:22:34.050Z,11.00
2022-11-05T21:25:02.572Z,10.79
2022-11-05T21:27:29.517Z,10.91
2022-11-05T21:29:56.573Z,10.72
2022-11-05T21:32:23.408Z,10.83
2022-11-05T21:34:50.631Z,10.85
2022-11-05T21:37:20.558Z,10.69
2022-11-05T21:39:47.449Z,10.80
2022-11-05T21:42:14.365Z,10.74
2022-11-05T21:44:41.354Z,10.80
2022-11-05T21:47:10.180Z,10.96
2022-11-05T21:49:41.033Z,10.93
2022-11-05T21:52:26.455Z,11.13
2022-11-05T21:55:13.379Z,11.26
2022-11-05T21:58:01.993Z,11.34
2022-11-05T22:00:30.361Z,11.43
2022-11-05T22:03:00.206Z,11.29
2022-11-05T22:05:30.475Z,11.42
2022-11-05T22:07:57.845Z,11.07
2022-11-05T22:10:24.782Z,11.09
2022-11-05T22:12:54.149Z,11.06
2022-11-05T22:15:21.178Z,11.15
2022-11-05T22:17:50.708Z,11.15
2022-11-05T22:20:17.822Z,11.20
2022-11-05T22:22:45.038Z,11.26
2022-11-05T22:25:13.589Z,11.32
2022-11-05T22:27:40.410Z,11.33
2022-11-05T22:30:10.185Z,11.38
2022-11-05T22:32:39.104Z,11.43
2022-11-05T22:35:06.795Z,11.37
2022-11-05T22:37:33.587Z,11.40
2022-11-05T22:40:00.295Z,11.13
2022-11-05T22:42:27.158Z,11.07
2022-11-05T22:44:54.732Z,10.91
2022-11-05T22:47:21.887Z,10.94
2022-11-05T22:49:50.357Z,11.06
2022-11-05T22:52:17.333Z,11.04
2022-11-05T22:54:44.501Z,10.97
2022-11-05T22:57:11.331Z,10.90
2022-11-05T22:59:38.128Z,10.87
2022-11-05T23:02:09.456Z,10.98
2022-11-05T23:04:37.267Z,10.70
2022-11-05T23:07:27.311Z,10.68
2022-11-05T23:10:14.077Z,10.72
2022-11-05T23:12:43.358Z,10.69
2022-11-05T23:15:30.725Z,10.87
2022-11-05T23:18:16.163Z,11.00
2022-11-05T23:21:01.677Z,11.01
2022-11-05T23:23:47.312Z,11.14
2022-11-05T23:26:33.018Z,11.10
2022-11-05T23:28:59.910Z,11.14
2022-11-05T23:31:45.077Z,10.97
2022-11-05T23:34:11.831Z,10.82
2022-11-05T23:36:57.169Z,10.85
2022-11-05T23:39:23.995Z,10.81
2022-11-05T23:42:09.222Z,10.79
2022-11-05T23:44:54.218Z,10.91
2022-11-05T23:47:39.688Z,10.92
2022-11-05T23:50:06.643Z,10.93
2022-11-05T23:52:33.420Z,10.86
2022-11-05T23:55:00.094Z,10.73
2022-11-05T23:57:26.931Z,10.79
2022-11-05T23:59:53.552Z,10.74
